Latest Weather Observations for Tocal

IDN60801

Issued at 12:32 pm EST Monday 31 August 2015 (issued every 30 minutes, with the page automatically refreshed every 10 minutes)

About weather observations | Map of weather stations | Latest weather observations for NSW | Other Formats
Station Details ID: 061250 Name: TOCAL AWS Lat: -32.63 Lon: 151.59 Height: 30.0 m
Data from the previous 72 hours. | See also: Recent months at Tocal
Date/Time
EST
Temp
°C
App
Temp
°C
Dew
Point
Rel
Hum
%
Delta-T
°C
Wind Press
QNH
hPa
Press
MSL
hPa
Rain
since 9 am
mm
Dir
 
Spd
km/h
Gust
km/h
Spd
kts
Gust
kts
31/12:30pm 16.7 13.7 6.0 49 5.2 W 11 20 6 11 - - 0.0
31/12:00pm 17.3 14.8 6.6 49 5.3 WSW 9 17 5 9 - - 0.0
31/11:30am 16.4 12.7 6.4 51 4.9 WSW 15 24 8 13 - - 0.0
31/11:00am 16.5 13.3 6.8 52 4.8 SW 13 20 7 11 - - 0.0
31/10:30am 15.9 13.0 6.7 54 4.5 W 11 20 6 11 - - 0.0
31/10:00am 14.8 11.3 5.5 53 4.4 SW 13 24 7 13 - - 0.0
31/09:30am 15.1 12.2 6.4 56 4.2 W 11 20 6 11 - - 0.0
31/09:00am 14.3 12.5 8.1 66 3.1 NNE 7 11 4 6 - - 0.0
31/08:30am 12.6 10.9 8.4 75 2.1 NE 7 9 4 5 - - 0.0
31/08:00am 10.5 8.5 7.1 79 1.6 NE 7 9 4 5 - - 0.0
31/07:30am 9.2 7.8 7.1 87 1.0 N 4 7 2 4 - - 0.0
31/07:00am 7.7 5.7 6.2 90 0.7 NNE 6 7 3 4 - - 0.0
31/06:30am 7.0 4.7 5.7 91 0.6 NNE 7 11 4 6 - - 0.0
31/06:00am 7.1 5.0 5.8 91 0.6 NNE 6 7 3 4 - - 0.0
31/05:30am 7.4 5.1 5.8 90 0.7 NNE 7 9 4 5 - - 0.0
31/05:00am 7.7 5.1 5.9 88 0.8 NE 9 11 5 6 - - 0.0
31/04:30am 8.2 5.6 6.2 87 0.9 NE 9 13 5 7 - - 0.0
31/04:00am 8.3 5.7 6.3 87 0.9 NE 9 13 5 7 - - 0.0
31/03:30am 8.2 5.6 6.2 87 0.9 NE 9 11 5 6 - - 0.0
31/03:00am 7.7 5.7 6.2 90 0.7 NNE 6 7 3 4 - - 0.0
31/02:30am 7.8 6.6 6.3 90 0.7 NNE 2 7 1 4 - - 0.0
31/02:00am 7.8 7.0 6.7 93 0.5 CALM 0 0 0 0 - - 0.0
31/01:30am 7.1 5.2 6.7 97 0.2 NW 6 7 3 4 - - 0.0
31/01:00am 8.0 7.1 6.2 88 0.8 CALM 0 0 0 0 - - 0.0
31/12:30am 7.8 7.0 6.5 91 0.6 CALM 0 0 0 0 - - 0.0
31/12:00am 8.1 7.3 6.4 89 0.8 CALM 0 0 0 0 - - 0.0
 
Date/Time
EST
Temp
°C
App
Temp
°C
Dew
Point
Rel
Hum
%
Delta-T
°C
Wind Press
QNH
hPa
Press
MSL
hPa
Rain
since 9 am
mm
Dir
 
Spd
km/h
Gust
km/h
Spd
kts
Gust
kts
30/11:30pm 8.0 7.2 6.7 91 0.6 CALM 0 0 0 0 - - 0.0
30/11:00pm 8.3 7.6 7.0 91 0.6 CALM 0 0 0 0 - - 0.0
30/10:30pm 8.4 7.7 7.1 91 0.6 CALM 0 0 0 0 - - 0.0
30/10:00pm 8.4 7.3 6.9 90 0.7 N 2 6 1 3 - - 0.0
30/09:30pm 8.3 6.2 6.6 89 0.8 NNW 7 9 4 5 - - 0.0
30/09:00pm 8.6 6.6 6.9 89 0.8 NW 7 9 4 5 - - 0.0
30/08:30pm 8.8 6.7 6.6 86 1.0 NW 7 7 4 4 - - 0.0
30/08:00pm 9.5 7.6 6.9 84 1.2 WNW 6 9 3 5 - - 0.0
30/07:30pm 10.9 9.1 7.1 77 1.8 W 6 7 3 4 - - 0.0
30/07:00pm 11.0 9.1 6.8 75 2.0 W 6 7 3 4 - - 0.0
30/06:30pm 12.9 12.2 6.9 67 2.9 CALM 0 0 0 0 - - 0.0
30/06:00pm 13.6 12.5 6.8 63 3.3 S 2 7 1 4 - - 0.0
30/05:30pm 14.3 12.4 6.7 60 3.7 SE 6 9 3 5 - - 0.0
30/05:00pm 15.1 12.6 6.4 56 4.2 ESE 9 11 5 6 - - 0.0
30/04:30pm 16.2 13.1 5.6 49 5.1 SE 11 19 6 10 - - 0.0
30/04:00pm 16.8 14.4 4.5 44 5.8 S 6 7 3 4 - - 0.0
30/03:30pm 17.0 13.6 4.2 42 6.0 WSW 11 15 6 8 - - 0.0
30/03:00pm 18.7 15.6 3.6 36 7.1 W 9 15 5 8 - - 0.0
30/02:30pm 18.0 14.5 3.7 38 6.7 WSW 11 19 6 10 - - 0.0
30/02:00pm 17.7 14.3 4.1 40 6.4 SSW 11 19 6 10 - - 0.0
30/01:30pm 17.8 14.9 4.6 41 6.3 NNW 9 19 5 10 - - 0.0
30/01:00pm 17.4 14.7 5.4 45 5.8 WSW 9 17 5 9 - - 0.0
30/12:30pm 17.3 14.5 5.2 45 5.8 SW 9 17 5 9 - - 0.0
30/12:00pm 16.7 13.1 4.9 45 5.6 WSW 13 20 7 11 - - 0.0
30/11:30am 16.5 13.3 5.2 47 5.4 W 11 19 6 10 - - 0.0
30/11:00am 16.1 12.9 4.9 47 5.3 W 11 19 6 10 - - 0.0
30/10:30am 14.5 10.5 2.6 44 5.3 W 13 20 7 11 - - 0.0
30/10:00am 15.0 11.1 3.3 45 5.3 W 13 22 7 12 - - 0.0
30/09:30am 14.0 10.0 3.1 48 4.9 WNW 13 22 7 12 - - 0.0
30/09:00am 12.6 8.7 3.4 53 4.1 W 13 19 7 10 - - 0.0
30/08:30am 11.8 8.9 4.8 62 3.2 N 9 11 5 6 - - 0.0
30/08:00am 10.8 8.4 5.3 69 2.5 N 7 11 4 6 - - 0.0
30/07:30am 9.1 7.8 4.3 72 2.1 CALM 0 0 0 0 - - 0.0
30/07:00am 6.8 4.2 4.0 82 1.2 E 7 9 4 5 - - 0.0
30/06:30am 5.4 4.1 4.2 92 0.5 CALM 0 0 0 0 - - 0.0
30/06:00am 5.4 3.7 4.2 92 0.5 SE 2 6 1 3 - - 0.0
30/05:30am 5.4 3.7 4.2 92 0.5 ENE 2 7 1 4 - - 0.0
30/05:00am 6.8 5.5 4.0 82 1.2 CALM 0 0 0 0 - - 0.0
30/04:30am 6.6 5.4 4.5 86 0.9 CALM 0 0 0 0 - - 0.0
30/04:00am 8.5 6.4 3.9 73 2.0 NNE 4 7 2 4 - - 0.0
30/03:30am 8.9 7.2 3.9 71 2.2 NE 2 7 1 4 - - 0.0
30/03:00am 9.2 7.9 3.9 69 2.3 CALM 0 0 0 0 - - 0.0
30/02:30am 9.6 7.0 3.4 65 2.7 ENE 6 7 3 4 - - 0.0
30/02:00am 9.8 7.0 3.4 64 2.8 ESE 7 9 4 5 - - 0.0
30/01:30am 9.9 8.5 3.5 64 2.8 CALM 0 0 0 0 - - 0.0
30/01:00am 10.0 7.3 3.9 66 2.7 NW 7 11 4 6 - - 0.0
30/12:30am 11.1 8.1 3.9 61 3.2 WNW 9 11 5 6 - - 0.0
30/12:00am 11.3 8.3 3.9 60 3.3 WNW 9 13 5 7 - - 0.0
 
Date/Time
EST
Temp
°C
App
Temp
°C
Dew
Point
Rel
Hum
%
Delta-T
°C
Wind Press
QNH
hPa
Press
MSL
hPa
Rain
since 9 am
mm
Dir
 
Spd
km/h
Gust
km/h
Spd
kts
Gust
kts
29/11:30pm 12.1 8.6 3.3 55 3.9 W 11 15 6 8 - - 0.0
29/11:00pm 12.4 9.9 4.8 60 3.5 W 7 11 4 6 - - 0.0
29/10:30pm 12.7 9.8 4.9 59 3.6 W 9 13 5 7 - - 0.0
29/10:00pm 13.3 9.6 4.3 54 4.1 W 13 20 7 11 - - 0.0
29/09:30pm 13.7 10.0 4.3 53 4.3 W 13 17 7 9 - - 0.0
29/09:00pm 14.5 10.7 3.8 48 4.9 WNW 13 19 7 10 - - 0.0
29/08:30pm 14.8 10.6 3.6 47 5.1 WNW 15 26 8 14 - - 0.0
29/08:00pm 15.0 10.4 3.6 46 5.2 NW 17 28 9 15 - - 0.0
29/07:30pm 14.8 10.7 4.2 49 4.9 NW 15 22 8 12 - - 0.0
29/07:00pm 15.1 11.0 4.3 48 5.0 NW 15 20 8 11 - - 0.0
29/06:30pm 15.0 11.7 4.7 50 4.8 NW 11 17 6 9 - - 0.0
29/06:00pm 15.5 11.9 4.9 49 5.0 NW 13 17 7 9 - - 0.0
29/05:30pm 15.7 12.1 5.2 49 5.0 NNW 13 19 7 10 - - 0.0
29/05:00pm 17.2 12.8 4.5 43 6.0 NW 17 26 9 14 - - 0.0
29/04:30pm 17.8 13.5 5.4 44 6.0 NNW 17 26 9 14 - - 0.0
29/04:00pm 18.2 13.8 4.6 40 6.5 NW 17 30 9 16 - - 0.0
29/03:30pm 19.3 14.6 5.1 39 6.9 NW 19 30 10 16 - - 0.0
29/03:00pm 19.3 14.4 4.3 37 7.2 WNW 19 32 10 17 - - 0.0
29/02:30pm 19.4 13.9 4.1 36 7.3 NW 22 33 12 18 - - 0.0
29/02:00pm 19.4 14.6 4.7 38 7.1 WNW 19 30 10 16 - - 0.0
29/01:30pm 19.4 14.8 5.8 41 6.7 WNW 19 30 10 16 - - 0.0
29/01:00pm 18.9 14.3 5.4 41 6.6 WNW 19 33 10 18 - - 0.0
29/12:30pm 18.7 13.7 4.8 40 6.7 WNW 20 33 11 18 - - 0.0
29/12:00pm 18.4 13.7 5.2 42 6.4 WNW 19 30 10 16 - - 0.0
29/11:30am 17.8 13.7 6.0 46 5.8 WNW 17 33 9 18 - - 0.0
29/11:00am 17.2 13.0 5.9 47 5.5 NNW 17 28 9 15 - - 0.0
29/10:30am 17.1 11.8 5.0 44 5.8 NNW 22 32 12 17 - - 0.0
29/10:00am 16.7 12.7 6.5 51 5.0 NNW 17 30 9 16 - - 0.0
29/09:30am 14.6 13.0 7.8 63 3.4 E 6 9 3 5 - - 0.0
29/09:00am 12.5 10.5 7.1 69 2.6 ENE 7 9 4 5 - - 0.0
29/08:30am 10.7 8.3 7.1 78 1.7 ENE 9 11 5 6 - - 0.0
29/08:00am 9.0 7.0 6.9 87 1.0 NE 7 11 4 6 - - 0.0
29/07:30am 7.3 6.4 6.2 93 0.5 CALM 0 0 0 0 - - 0.0
29/07:00am 6.8 5.9 6.1 95 0.3 CALM 0 0 0 0 - - 0.0
29/06:30am 5.2 3.7 5.2 100 0.0 NW 2 7 1 4 - - 0.0
29/06:00am 5.6 4.6 5.4 99 0.1 CALM 0 0 0 0 - - 0.0
29/05:30am 5.6 4.5 5.1 97 0.2 CALM 0 0 0 0 - - 0.0
29/05:00am 5.8 4.7 5.3 97 0.2 CALM 0 0 0 0 - - 0.0
29/04:30am 6.1 5.1 5.6 97 0.2 CALM 0 0 0 0 - - 0.0
29/04:00am 5.8 4.8 5.6 99 0.1 CALM 0 0 0 0 - - 0.0
29/03:30am 6.8 5.9 5.9 94 0.4 CALM 0 0 0 0 - - 0.0
29/03:00am 6.9 6.0 6.0 94 0.4 CALM 0 0 0 0 - - 0.0
29/02:30am 8.2 7.2 5.8 85 1.1 CALM 0 7 0 4 - - 0.0
29/02:00am 8.4 7.4 5.8 84 1.2 CALM 0 0 0 0 - - 0.0
29/01:30am 8.2 7.3 6.0 86 1.0 CALM 0 0 0 0 - - 0.0
29/01:00am 8.8 7.9 6.0 82 1.3 CALM 0 0 0 0 - - 0.0
29/12:30am 9.0 7.7 6.2 82 1.3 NW 2 6 1 3 - - 0.0
29/12:00am 9.7 7.4 5.8 77 1.8 NW 7 9 4 5 - - 0.0
 
Date/Time
EST
Temp
°C
App
Temp
°C
Dew
Point
Rel
Hum
%
Delta-T
°C
Wind Press
QNH
hPa
Press
MSL
hPa
Rain
since 9 am
mm
Dir
 
Spd
km/h
Gust
km/h
Spd
kts
Gust
kts
28/11:30pm 10.2 9.3 5.9 74 2.0 CALM 0 0 0 0 - - 0.0
28/11:00pm 11.7 10.7 5.7 66 2.8 CALM 0 2 0 1 - - 0.0
28/10:30pm 12.4 10.2 5.3 62 3.3 E 6 7 3 4 - - 0.0
28/10:00pm 12.5 9.7 5.2 61 3.4 E 9 11 5 6 - - 0.0
28/09:30pm 12.6 10.0 6.0 64 3.1 NNW 9 13 5 7 - - 0.0
28/09:00pm 12.8 10.3 5.0 59 3.6 NNW 7 13 4 7 - - 0.0
28/08:30pm 12.7 9.5 4.9 59 3.6 NNW 11 15 6 8 - - 0.0
28/08:00pm 13.7 10.0 4.6 54 4.2 NNW 13 17 7 9 - - 0.0
28/07:30pm 13.7 10.8 4.9 55 4.1 NW 9 13 5 7 - - 0.0
28/07:00pm 13.4 10.7 5.5 59 3.7 NNW 9 13 5 7 - - 0.0
28/06:30pm 14.4 11.2 5.3 54 4.3 NW 11 17 6 9 - - 0.0
28/06:00pm 15.0 11.5 5.3 52 4.6 NW 13 17 7 9 - - 0.0
28/05:30pm 16.0 13.1 4.8 47 5.3 WNW 9 17 5 9 - - 0.0
28/05:00pm 16.9 13.6 4.4 43 5.9 NW 11 19 6 10 - - 0.0
28/04:30pm 17.7 13.6 4.4 41 6.3 WNW 15 26 8 14 - - 0.0
28/04:00pm 17.7 14.0 4.4 41 6.3 WNW 13 19 7 10 - - 0.0
28/03:30pm 18.4 14.4 4.9 41 6.5 WNW 15 30 8 16 - - 0.0
28/03:00pm 19.1 13.6 3.9 36 7.2 WNW 22 33 12 18 - - 0.0
28/02:30pm 18.8 13.8 4.4 38 6.9 NW 20 30 11 16 - - 0.0
28/02:00pm 18.6 13.8 4.9 40 6.6 WNW 19 32 10 17 - - 0.0
28/01:30pm 18.4 12.7 4.9 41 6.5 WNW 24 37 13 20 - - 0.0
28/01:00pm 18.4 13.5 4.9 41 6.5 WNW 20 37 11 20 - - 0.0

Other Formats:

Comma delimited format used in spreadsheet applications
http://www.bom.gov.au/fwo/IDN60801/IDN60801.94775.axf

JavaScript Object Notation format (JSON) in row-major order
http://www.bom.gov.au/fwo/IDN60801/IDN60801.94775.json